Time;durP1;ratioP1;P1;durP2;ratioP2;P2;SDS_P1;SDS_P2;PMS_P1;PMS_P2;Temp;Humidity;BMP_temperature;BMP_pressure;BME280_temperature;BME280_humidity;BME280_pressure;Samples;Min_cycle;Max_cycle;Signal;HPM_P1;HPM_P2
2022/07/01 00:00:24;;;;;;;4.20;2.20;;;;;;;22.98;53.55;101469.50;5015063;28;20291;-78
2022/07/01 00:02:50;;;;;;;3.25;2.05;;;;;;;22.96;53.83;101480.28;5015540;28;20275;-77
2022/07/01 00:05:15;;;;;;;5.47;2.17;;;;;;;22.94;53.41;101468.09;5015565;28;20030;-77
2022/07/01 00:07:40;;;;;;;4.00;2.10;;;;;;;22.94;53.36;101470.75;5014831;28;20279;-78
2022/07/01 00:10:06;;;;;;;5.13;2.15;;;;;;;22.93;53.45;101469.09;5015520;28;20275;-78
2022/07/01 00:12:31;;;;;;;3.72;1.92;;;;;;;22.93;53.58;101469.09;5015661;28;20097;-78
2022/07/01 00:14:57;;;;;;;3.78;1.98;;;;;;;22.92;53.77;101464.75;5014503;28;20030;-78
2022/07/01 00:17:22;;;;;;;4.60;2.38;;;;;;;22.90;53.61;101462.22;5015550;28;20442;-77
2022/07/01 00:19:49;;;;;;;3.50;2.00;;;;;;;22.90;53.52;101461.41;5014637;28;20022;-78
2022/07/01 00:22:14;;;;;;;3.75;2.30;;;;;;;22.88;53.25;101458.88;5015079;28;20619;-78
2022/07/01 00:24:39;;;;;;;3.70;1.92;;;;;;;22.88;53.56;101458.06;5015195;28;20029;-77
2022/07/01 00:27:05;;;;;;;3.87;2.23;;;;;;;22.88;53.46;101460.72;5014412;28;20040;-78
2022/07/01 00:29:30;;;;;;;3.65;2.03;;;;;;;22.86;53.57;101442.25;5015350;28;20673;-78
2022/07/01 00:31:55;;;;;;;3.90;2.10;;;;;;;22.86;53.20;101452.03;5014933;28;20490;-78
2022/07/01 00:34:20;;;;;;;4.03;2.30;;;;;;;22.86;53.01;101446.72;5014182;28;20466;-78
2022/07/01 00:36:46;;;;;;;3.95;2.20;;;;;;;22.83;53.43;101430.06;5015037;28;20026;-78
2022/07/01 00:39:11;;;;;;;4.37;2.20;;;;;;;22.82;53.06;101425.72;5014517;28;20029;-78
2022/07/01 00:41:37;;;;;;;4.33;2.03;;;;;;;22.80;53.35;101424.22;5014351;28;20270;-78
2022/07/01 00:44:02;;;;;;;4.28;2.25;;;;;;;22.80;52.98;101425.03;5014747;28;20804;-78
2022/07/01 00:46:28;;;;;;;4.30;2.13;;;;;;;22.79;52.99;101423.34;5014899;28;20394;-78
2022/07/01 00:48:58;;;;;;;4.57;2.30;;;;;;;22.80;53.28;101426.88;5013967;28;20032;-78
2022/07/01 00:51:24;;;;;;;4.05;2.33;;;;;;;22.79;53.47;101430.50;5014841;28;20030;-78
2022/07/01 00:53:49;;;;;;;3.85;2.05;;;;;;;22.78;52.87;101432.31;5014533;28;20080;-78
2022/07/01 00:56:15;;;;;;;3.65;2.15;;;;;;;22.77;52.91;101437.78;5013957;28;20026;-78
2022/07/01 00:58:41;;;;;;;4.80;2.30;;;;;;;22.77;52.84;101448.41;5014499;28;20105;-77
2022/07/01 01:01:06;;;;;;;3.63;2.05;;;;;;;22.76;53.18;101439.56;5014255;28;20030;-78
2022/07/01 01:03:32;;;;;;;4.07;2.30;;;;;;;22.74;53.37;101436.22;5013903;28;20026;-78
2022/07/01 01:05:57;;;;;;;3.65;2.13;;;;;;;22.75;52.84;101445.06;5014202;28;20744;-78
2022/07/01 01:08:23;;;;;;;4.20;2.10;;;;;;;22.75;53.14;101456.50;5014675;28;20022;-78
2022/07/01 01:10:49;;;;;;;4.25;2.58;;;;;;;22.74;53.12;101462.81;5013915;28;20075;-78
2022/07/01 01:13:15;;;;;;;3.78;2.00;;;;;;;22.75;52.85;101458.34;5014938;28;20018;-77
2022/07/01 01:15:40;;;;;;;4.47;2.45;;;;;;;22.73;52.77;101462.94;5014475;28;20030;-79
2022/07/01 01:18:06;;;;;;;3.53;1.95;;;;;;;22.73;52.75;101476.22;5013396;28;20026;-78
2022/07/01 01:20:36;;;;;;;3.90;2.22;;;;;;;22.74;52.73;101468.13;5014164;28;20033;-78
2022/07/01 01:23:04;;;;;;;4.65;2.65;;;;;;;22.72;52.97;101491.34;5014086;28;20037;-78
2022/07/01 01:25:30;;;;;;;3.90;2.20;;;;;;;22.72;53.24;101494.00;5013863;28;20033;-78
2022/07/01 01:27:55;;;;;;;4.28;2.40;;;;;;;22.71;52.95;101492.31;5013773;28;20033;-78
2022/07/01 01:30:20;;;;;;;4.68;2.53;;;;;;;22.71;52.77;101489.66;5012760;28;20030;-77
2022/07/01 01:32:46;;;;;;;3.50;2.10;;;;;;;22.71;53.00;101489.66;5014065;28;20014;-78
2022/07/01 01:35:13;;;;;;;5.68;2.58;;;;;;;22.71;53.06;101488.81;5013374;28;20041;-77
2022/07/01 01:37:38;;;;;;;4.93;2.60;;;;;;;22.70;52.95;101480.03;5013191;28;20373;-76
2022/07/01 01:40:04;;;;;;;4.95;2.30;;;;;;;22.70;52.68;101485.34;5013691;28;20120;-76
2022/07/01 01:42:30;;;;;;;5.65;2.78;;;;;;;22.70;52.79;101484.47;5014257;28;20018;-76
2022/07/01 01:44:56;;;;;;;4.88;2.55;;;;;;;22.69;52.97;101480.16;5013055;28;20044;-76
2022/07/01 01:47:21;;;;;;;4.05;2.45;;;;;;;22.69;53.00;101475.66;5013815;28;20474;-76
2022/07/01 01:49:46;;;;;;;4.45;2.45;;;;;;;22.69;52.87;101464.22;5013780;28;20104;-76
2022/07/01 01:52:12;;;;;;;4.72;2.58;;;;;;;22.68;53.08;101478.47;5013022;28;20022;-76
2022/07/01 01:54:37;;;;;;;4.35;2.83;;;;;;;22.67;52.91;101488.25;5013909;28;20057;-76
2022/07/01 01:57:04;;;;;;;5.97;3.10;;;;;;;22.67;52.77;101480.28;5013629;28;20018;-76
2022/07/01 01:59:30;;;;;;;5.53;2.78;;;;;;;22.64;53.24;101481.41;5013008;28;20032;-76
2022/07/01 02:01:55;;;;;;;4.55;2.63;;;;;;;22.65;52.75;101474.25;5013441;28;20022;-77
2022/07/01 02:04:20;;;;;;;4.53;2.70;;;;;;;22.65;52.64;101484.88;5013717;28;20029;-77
2022/07/01 02:06:46;;;;;;;4.95;2.72;;;;;;;22.67;52.65;101492.72;5012990;28;20461;-77
2022/07/01 02:09:13;;;;;;;6.00;2.95;;;;;;;22.65;53.10;101487.53;5013385;28;20109;-77
2022/07/01 02:11:38;;;;;;;4.03;2.63;;;;;;;22.66;52.55;101494.53;5013640;28;20014;-76
2022/07/01 02:14:04;;;;;;;4.20;2.40;;;;;;;22.65;52.71;101498.16;5012417;28;20540;-76
2022/07/01 02:16:29;;;;;;;5.20;2.90;;;;;;;22.65;52.79;101506.13;5013435;28;20512;-76
2022/07/01 02:18:54;;;;;;;4.53;2.63;;;;;;;22.66;52.77;101514.97;5012945;28;20438;-77
2022/07/01 02:21:20;;;;;;;4.63;2.67;;;;;;;22.63;52.56;101514.25;5012574;28;20279;-77
2022/07/01 02:23:45;;;;;;;4.85;2.50;;;;;;;22.63;52.38;101516.06;5013708;28;20122;-77
2022/07/01 02:26:11;;;;;;;5.32;2.95;;;;;;;22.63;52.77;101521.38;5013135;28;20101;-76
2022/07/01 02:28:36;;;;;;;5.60;3.27;;;;;;;22.61;52.70;101526.84;5012640;28;20116;-77
2022/07/01 02:31:02;;;;;;;6.35;3.08;;;;;;;22.61;52.79;101524.19;5013047;28;20276;-76
2022/07/01 02:33:28;;;;;;;5.10;2.95;;;;;;;22.61;52.87;101494.13;5012416;28;20426;-77
2022/07/01 02:35:53;;;;;;;4.95;2.60;;;;;;;22.60;52.87;101477.31;5012702;28;20053;-77
2022/07/01 02:38:18;;;;;;;5.95;2.90;;;;;;;22.61;52.65;101467.56;5013427;28;20062;-77
2022/07/01 02:40:44;;;;;;;5.40;3.20;;;;;;;22.60;52.81;101481.81;5012501;28;20116;-76
2022/07/01 02:43:09;;;;;;;5.50;2.97;;;;;;;22.60;52.59;101495.94;5018944;28;20068;-77
2022/07/01 02:45:34;;;;;;;4.88;3.10;;;;;;;22.59;52.63;101493.44;5019822;28;20174;-77
2022/07/01 02:48:01;;;;;;;5.28;3.10;;;;;;;22.60;52.40;101505.72;5018634;28;20484;-76
2022/07/01 02:50:27;;;;;;;5.97;3.00;;;;;;;22.61;52.39;101515.38;5019941;28;20022;-76
2022/07/01 02:52:52;;;;;;;5.28;3.08;;;;;;;22.59;52.05;101515.53;5019380;28;20064;-78
2022/07/01 02:55:17;;;;;;;5.40;3.05;;;;;;;22.59;52.26;101515.53;5019078;28;20095;-76
2022/07/01 02:57:43;;;;;;;5.85;3.10;;;;;;;22.59;52.32;101520.00;5019700;28;20022;-76
2022/07/01 03:00:12;;;;;;;5.63;3.15;;;;;;;22.58;52.56;101519.13;5019217;28;20548;-77
2022/07/01 03:02:37;;;;;;;5.47;3.40;;;;;;;22.57;52.56;101514.81;5018833;28;20115;-77
2022/07/01 03:05:03;;;;;;;5.22;3.10;;;;;;;22.57;52.51;101517.47;5019410;28;20065;-77
2022/07/01 03:07:29;;;;;;;5.78;3.05;;;;;;;22.56;52.61;101514.97;5019653;28;20061;-77
2022/07/01 03:09:54;;;;;;;5.15;3.30;;;;;;;22.57;52.54;101522.78;5018531;28;20025;-77
2022/07/01 03:12:25;;;;;;;5.30;3.67;;;;;;;22.56;52.52;101520.28;5019485;28;20026;-77
2022/07/01 03:14:51;;;;;;;5.97;3.45;;;;;;;22.55;52.57;101513.28;5019276;28;20045;-77
2022/07/01 03:17:17;;;;;;;6.45;3.63;;;;;;;22.55;52.15;101516.75;5018766;28;20099;-77
2022/07/01 03:19:42;;;;;;;5.95;3.40;;;;;;;22.56;52.32;101520.28;5019444;28;20469;-76
2022/07/01 03:22:08;;;;;;;6.15;3.70;;;;;;;22.53;52.24;101508.09;5019517;28;20030;-77
2022/07/01 03:24:33;;;;;;;5.57;3.78;;;;;;;22.55;52.45;101502.66;5018907;28;20025;-77
2022/07/01 03:26:59;;;;;;;5.83;3.43;;;;;;;22.54;52.27;101511.59;5019382;28;20436;-77
2022/07/01 03:29:24;;;;;;;7.43;4.35;;;;;;;22.53;52.19;101518.72;5019650;28;20271;-78
2022/07/01 03:31:49;;;;;;;6.45;3.85;;;;;;;22.53;52.49;101526.69;5018983;28;20049;-77
2022/07/01 03:34:15;;;;;;;6.07;3.40;;;;;;;22.54;52.18;101524.88;5019698;28;20032;-78
2022/07/01 03:36:40;;;;;;;6.33;4.07;;;;;;;22.53;52.31;101537.31;5019760;28;20264;-77
2022/07/01 03:39:05;;;;;;;6.83;3.73;;;;;;;22.52;52.46;101551.56;5018882;28;20268;-77
2022/07/01 03:41:30;;;;;;;6.28;4.30;;;;;;;22.52;52.26;101553.38;5019691;28;20657;-77
2022/07/01 03:43:56;;;;;;;6.20;4.07;;;;;;;22.52;52.11;101550.72;5018586;28;20084;-77
2022/07/01 03:46:21;;;;;;;6.10;4.10;;;;;;;22.52;52.32;101561.34;5019295;28;20272;-77
2022/07/01 03:48:46;;;;;;;6.75;4.10;;;;;;;22.51;52.29;101563.19;5019623;28;20293;-77
2022/07/01 03:51:11;;;;;;;5.95;3.80;;;;;;;22.51;52.24;101572.94;5018284;28;20385;-77
2022/07/01 03:56:21;;;;;;;8.48;4.57;;;;;;;22.50;52.10;101579.25;5016171;28;20032;-78
2022/07/01 03:58:46;;;;;;;8.48;4.50;;;;;;;22.48;52.30;101574.06;5015272;28;20034;-77
2022/07/01 04:01:11;;;;;;;7.15;4.03;;;;;;;22.50;52.00;101584.56;5015717;28;20115;-77
2022/07/01 04:03:37;;;;;;;6.55;4.28;;;;;;;22.50;51.96;101592.53;5016147;28;20026;-77
2022/07/01 04:06:02;;;;;;;6.78;4.60;;;;;;;22.49;52.20;101585.53;5014892;28;20420;-77
2022/07/01 04:08:27;;;;;;;6.85;4.68;;;;;;;22.49;52.35;101586.34;5015944;28;20033;-77
2022/07/01 04:10:54;;;;;;;6.65;4.43;;;;;;;22.50;52.14;101592.53;5015553;28;20026;-77
2022/07/01 04:13:20;;;;;;;6.22;4.60;;;;;;;22.50;52.26;101587.22;5014839;28;20098;-77
2022/07/01 04:15:46;;;;;;;5.65;4.43;;;;;;;22.49;52.02;101585.53;5015730;28;20077;-77
2022/07/01 04:18:12;;;;;;;6.22;4.70;;;;;;;22.49;52.08;101582.88;5015430;28;20018;-77
2022/07/01 04:20:37;;;;;;;6.40;4.80;;;;;;;22.49;52.16;101590.84;5014798;28;20037;-77
2022/07/01 04:23:02;;;;;;;6.68;5.03;;;;;;;22.49;52.08;101590.84;5015147;28;20021;-77
2022/07/01 04:25:29;;;;;;;7.20;4.57;;;;;;;22.48;52.22;101586.50;5015332;28;20022;-77
2022/07/01 04:27:56;;;;;;;6.53;4.80;;;;;;;22.48;52.12;101587.34;5014145;28;20255;-77
2022/07/01 04:30:21;;;;;;;6.93;4.43;;;;;;;22.48;52.16;101581.19;5015218;28;20026;-77
2022/07/01 04:32:46;;;;;;;7.00;4.47;;;;;;;22.46;52.08;101579.53;5015383;28;20029;-77
2022/07/01 04:35:14;;;;;;;7.00;4.18;;;;;;;22.46;51.89;101584.84;5014235;28;20121;-77
2022/07/01 04:37:39;;;;;;;7.53;4.82;;;;;;;22.46;52.20;101598.13;5015219;28;20034;-77
2022/07/01 04:40:06;;;;;;;6.13;4.30;;;;;;;22.46;52.01;101600.78;5013948;28;20030;-78
2022/07/01 04:42:31;;;;;;;5.30;4.00;;;;;;;22.46;52.18;101595.47;5015214;28;20140;-77
2022/07/01 04:44:56;;;;;;;7.00;4.03;;;;;;;22.44;51.86;101592.06;5014981;28;20071;-77
2022/07/01 04:47:23;;;;;;;6.47;4.40;;;;;;;22.45;51.90;101593.75;5014325;28;20282;-77
2022/07/01 04:49:48;;;;;;;5.38;3.72;;;;;;;22.45;52.00;101599.06;5015112;28;20271;-77
2022/07/01 04:52:13;;;;;;;6.18;4.00;;;;;;;22.44;52.11;101588.59;5014779;28;20017;-77
2022/07/01 04:54:39;;;;;;;6.45;4.32;;;;;;;22.44;51.95;101589.41;5014161;28;20022;-77
2022/07/01 04:57:04;;;;;;;6.22;4.15;;;;;;;22.44;51.70;101596.56;5014471;28;20026;-77
2022/07/01 04:59:29;;;;;;;5.78;3.80;;;;;;;22.44;51.98;101584.09;5014812;28;20032;-76
2022/07/01 05:01:55;;;;;;;6.00;4.15;;;;;;;22.43;51.77;101585.09;5013973;28;20054;-77
2022/07/01 05:04:20;;;;;;;5.20;3.75;;;;;;;22.45;52.10;101588.44;5014587;28;20021;-77
2022/07/01 05:06:46;;;;;;;5.70;3.80;;;;;;;22.44;51.91;101602.69;5014009;28;20076;-77
2022/07/01 05:09:12;;;;;;;5.53;3.50;;;;;;;22.44;51.78;101602.69;5013487;28;20385;-77
2022/07/01 05:11:38;;;;;;;5.80;3.92;;;;;;;22.44;51.99;101607.19;5014360;28;20041;-77
2022/07/01 05:14:04;;;;;;;6.05;3.55;;;;;;;22.44;51.79;101613.31;5014098;28;20362;-78
2022/07/01 05:16:29;;;;;;;5.82;3.55;;;;;;;22.44;52.17;101604.53;5013596;28;20117;-77
2022/07/01 05:21:57;;;;;;;5.35;3.45;;;;;;;22.41;51.87;101608.31;5014559;28;20397;-77
2022/07/01 05:24:23;;;;;;;5.07;3.33;;;;;;;22.43;52.29;101605.50;5013576;28;20053;-78
2022/07/01 05:26:49;;;;;;;7.93;3.75;;;;;;;22.44;50.70;101607.19;5014432;28;20282;-76
2022/07/01 05:29:15;;;;;;;6.38;3.53;;;;;;;22.38;51.82;101611.22;5014244;28;20041;-78
2022/07/01 05:31:40;;;;;;;7.85;5.32;;;;;;;22.30;49.58;101604.91;5014077;28;20092;-78
2022/07/01 05:34:06;;;;;;;5.93;3.20;;;;;;;22.14;51.97;101600.88;5013632;28;20403;-78
2022/07/01 05:36:32;;;;;;;6.05;3.47;;;;;;;22.09;53.19;101603.09;5013542;28;20026;-77
2022/07/01 05:38:58;;;;;;;4.97;3.30;;;;;;;22.09;53.18;101606.56;5013783;28;20037;-74
2022/07/01 05:41:23;;;;;;;5.78;3.22;;;;;;;22.14;53.03;101606.19;5014208;28;20042;-77
2022/07/01 05:43:49;;;;;;;6.95;3.00;;;;;;;22.16;52.76;101609.56;5013338;28;20026;-76
2022/07/01 05:46:14;;;;;;;5.03;3.08;;;;;;;22.20;52.96;101605.66;5014064;28;20462;-70
2022/07/01 05:48:39;;;;;;;4.80;3.10;;;;;;;22.24;53.15;101600.94;5013760;28;20470;-70
2022/07/01 05:51:05;;;;;;;5.63;3.10;;;;;;;22.27;53.09;101605.97;5012693;28;20033;-70
2022/07/01 05:53:30;;;;;;;4.90;3.00;;;;;;;22.32;52.74;101610.91;5013762;28;20303;-76
2022/07/01 05:55:55;;;;;;;6.10;3.17;;;;;;;22.35;52.85;101616.81;5013490;28;20278;-71
2022/07/01 05:58:20;;;;;;;5.43;3.20;;;;;;;22.38;52.94;101615.69;5012906;28;20734;-72
2022/07/01 06:00:46;;;;;;;5.75;2.92;;;;;;;22.41;52.91;101612.75;5013790;28;20034;-72
2022/07/01 06:03:13;;;;;;;6.00;3.13;;;;;;;22.43;53.04;101605.50;5013326;28;20428;-69
2022/07/01 06:05:39;;;;;;;6.75;3.25;;;;;;;22.44;52.85;101605.34;5012835;28;20271;-77
2022/07/01 06:08:05;;;;;;;5.75;2.78;;;;;;;22.46;52.84;101603.44;5013028;28;20469;-76
2022/07/01 06:10:31;;;;;;;4.38;2.60;;;;;;;22.47;52.81;101606.91;5013692;28;20096;-72
2022/07/01 06:12:57;;;;;;;5.45;3.13;;;;;;;22.50;52.65;101616.44;5012664;28;20018;-75
2022/07/01 06:15:22;;;;;;;5.40;2.90;;;;;;;22.50;52.75;101611.97;5013311;28;20026;-74
2022/07/01 06:17:49;;;;;;;4.53;2.83;;;;;;;22.53;52.96;101621.47;5013127;28;20030;-74
2022/07/01 06:20:15;;;;;;;5.07;2.78;;;;;;;22.53;52.91;101614.34;5012420;28;20458;-73
2022/07/01 06:22:40;;;;;;;4.90;3.03;;;;;;;22.56;52.40;101614.06;5013071;28;20033;-71
2022/07/01 06:25:06;;;;;;;6.30;3.00;;;;;;;22.57;52.67;101614.91;5013019;28;20034;-72
2022/07/01 06:27:31;;;;;;;5.57;2.90;;;;;;;22.59;52.75;101618.28;5012511;28;20096;-73
2022/07/01 06:29:56;;;;;;;6.53;3.27;;;;;;;22.59;52.69;101615.63;5012672;28;20030;-73
2022/07/01 06:32:21;;;;;;;6.33;2.90;;;;;;;22.59;52.65;101611.16;5013477;28;20278;-74
2022/07/01 06:34:48;;;;;;;5.18;2.88;;;;;;;22.60;52.52;101609.31;5012277;28;20750;-73
2022/07/01 06:37:13;;;;;;;7.63;2.90;;;;;;;22.60;52.52;101601.34;5013114;28;20036;-77
2022/07/01 06:39:38;;;;;;;6.72;2.60;;;;;;;22.63;52.46;101609.88;5013103;28;20034;-77
2022/07/01 06:42:04;;;;;;;7.13;2.75;;;;;;;22.66;52.61;101600.81;5013638;28;20097;-77
2022/07/01 06:44:29;;;;;;;5.78;2.50;;;;;;;22.74;52.11;101610.75;5013078;28;20037;-79
2022/07/01 06:46:55;;;;;;;4.77;2.57;;;;;;;22.80;51.87;101613.72;5014139;28;20030;-77
2022/07/01 06:49:20;;;;;;;4.90;2.60;;;;;;;22.85;51.95;101597.34;5013197;28;20263;-78
2022/07/01 06:51:45;;;;;;;6.65;2.10;;;;;;;22.94;51.53;101606.28;5013060;28;20053;-79
2022/07/01 06:54:11;;;;;;;5.93;2.40;;;;;;;23.00;51.49;101606.63;5012188;28;20022;-76
2022/07/01 06:56:36;;;;;;;6.03;2.22;;;;;;;23.07;51.44;101606.88;5013150;28;20381;-77
2022/07/01 06:59:05;;;;;;;5.50;2.38;;;;;;;23.10;50.78;101597.84;5012833;28;20378;-79
2022/07/01 07:01:33;;;;;;;5.10;2.50;;;;;;;23.15;50.74;101604.41;5012046;28;20038;-77
2022/07/01 07:03:58;;;;;;;5.22;2.20;;;;;;;23.22;50.43;101601.19;5012550;28;20095;-76
2022/07/01 07:06:23;;;;;;;6.43;2.40;;;;;;;23.26;50.32;101607.91;5012832;28;20026;-77
2022/07/01 07:08:49;;;;;;;3.85;2.10;;;;;;;23.29;50.44;101613.78;5012290;28;20329;-76
2022/07/01 07:11:19;;;;;;;4.32;2.05;;;;;;;23.32;49.96;101624.16;5012748;28;20022;-80
2022/07/01 07:13:44;;;;;;;6.60;2.28;;;;;;;23.35;50.42;101629.19;5012910;28;20056;-81
2022/07/01 07:16:09;;;;;;;4.78;1.95;;;;;;;23.34;50.25;101638.13;5011766;28;20072;-81
2022/07/01 07:18:35;;;;;;;3.97;1.83;;;;;;;23.35;50.30;101644.28;5012765;28;20034;-82
2022/07/01 07:21:00;;;;;;;4.55;1.70;;;;;;;23.36;49.89;101646.81;5012164;28;20105;-83
2022/07/01 07:23:26;;;;;;;3.88;1.80;;;;;;;23.41;49.72;101643.72;5012075;28;20100;-79
2022/07/01 07:25:51;;;;;;;3.15;1.60;;;;;;;23.44;49.90;101635.47;5012689;28;20073;-78
2022/07/01 07:28:16;;;;;;;4.53;1.90;;;;;;;23.46;49.57;101630.00;5013031;28;20022;-79
2022/07/01 07:30:42;;;;;;;4.57;1.77;;;;;;;23.47;49.87;101631.69;5015856;28;20109;-78
2022/07/01 07:33:07;;;;;;;5.03;2.25;;;;;;;23.49;47.90;101629.72;5016133;28;20018;-75
2022/07/01 07:35:32;;;;;;;4.55;1.60;;;;;;;23.43;49.10;101633.81;5016106;28;20046;-75
2022/07/01 07:37:58;;;;;;;6.85;1.80;;;;;;;23.42;49.65;101631.28;5015945;28;20044;-76
2022/07/01 07:40:24;;;;;;;5.50;1.70;;;;;;;23.41;49.62;101627.75;5017447;28;20084;-76
2022/07/01 07:42:49;;;;;;;4.43;1.55;;;;;;;23.45;49.55;101639.81;5020349;28;20033;-79
2022/07/01 07:45:15;;;;;;;5.00;1.63;;;;;;;23.49;49.72;101637.72;5018362;28;20385;-77
2022/07/01 07:47:45;;;;;;;4.60;1.60;;;;;;;23.51;49.58;101636.59;5020292;28;20097;-76
2022/07/01 07:50:12;;;;;;;4.72;1.52;;;;;;;23.55;49.33;101643.28;5017732;28;20030;-80
2022/07/01 07:52:38;;;;;;;3.38;1.40;;;;;;;23.57;49.00;101644.97;5017040;28;20025;-78
2022/07/01 07:55:05;;;;;;;4.50;1.85;;;;;;;23.58;48.95;101655.50;5016063;28;20213;-80
2022/07/01 07:57:30;;;;;;;3.10;1.35;;;;;;;23.60;48.94;101658.84;5015227;28;20022;-78
2022/07/01 07:59:56;;;;;;;3.17;1.30;;;;;;;23.62;48.71;101653.38;5015472;28;20525;-77
2022/07/01 08:02:21;;;;;;;3.10;1.30;;;;;;;23.60;48.82;101645.53;5015786;28;20032;-77
2022/07/01 08:04:47;;;;;;;3.63;1.40;;;;;;;23.58;48.96;101649.34;5014917;28;20033;-78
2022/07/01 08:07:12;;;;;;;2.67;1.20;;;;;;;23.58;48.71;101650.16;5015498;28;20322;-79
2022/07/01 08:09:37;;;;;;;3.33;1.25;;;;;;;23.61;48.74;101652.53;5015930;28;20279;-80
2022/07/01 08:12:03;;;;;;;3.10;1.47;;;;;;;23.65;48.59;101661.91;5014673;28;20466;-81
2022/07/01 08:14:29;;;;;;;3.22;1.25;;;;;;;23.67;48.43;101667.94;5015407;28;20260;-75
2022/07/01 08:16:54;;;;;;;3.17;1.40;;;;;;;23.64;48.31;101670.03;5015186;28;20084;-76
2022/07/01 08:19:20;;;;;;;2.85;1.20;;;;;;;23.59;48.71;101667.81;5014650;28;20026;-77
2022/07/01 08:21:45;;;;;;;3.85;1.20;;;;;;;23.58;48.91;101675.94;5015838;28;20017;-80
2022/07/01 08:24:10;;;;;;;4.90;1.48;;;;;;;23.61;48.46;101675.66;5015018;28;20478;-80
2022/07/01 08:26:36;;;;;;;4.28;1.30;;;;;;;23.65;48.18;101677.03;5014627;28;20030;-76
2022/07/01 08:29:04;;;;;;;4.70;1.37;;;;;;;23.69;48.46;101686.44;5015153;28;20373;-76
2022/07/01 08:31:31;;;;;;;4.80;1.10;;;;;;;23.70;48.54;101686.28;5015364;28;20343;-69
2022/07/01 08:33:57;;;;;;;5.05;1.30;;;;;;;23.68;48.18;101684.75;5014091;28;20032;-69
2022/07/01 08:36:22;;;;;;;3.83;1.20;;;;;;;23.66;48.14;101687.53;5014885;28;20034;-72
2022/07/01 08:38:49;;;;;;;4.00;1.20;;;;;;;23.62;48.06;101687.97;5014910;28;20033;-72
2022/07/01 08:41:14;;;;;;;3.25;1.02;;;;;;;23.58;48.08;101686.59;5014072;28;20116;-72
2022/07/01 08:43:40;;;;;;;2.90;1.05;;;;;;;23.54;48.33;101692.19;5015291;28;20042;-72
2022/07/01 08:46:07;;;;;;;3.88;1.20;;;;;;;23.50;47.38;101692.59;5014799;28;20028;-82
2022/07/01 08:48:33;;;;;;;4.10;1.10;;;;;;;23.52;47.93;101698.63;5014211;28;20068;-82
2022/07/01 08:51:03;;;;;;;5.45;1.30;;;;;;;23.57;48.13;101703.50;5014688;28;20040;-80
2022/07/01 08:53:29;;;;;;;3.10;1.00;;;;;;;23.62;47.91;101710.06;5014010;28;20029;-76
2022/07/01 08:58:38;;;;;;;3.30;1.05;;;;;;;23.60;47.96;101719.19;5014869;28;20121;-74
2022/07/01 09:01:21;;;;;;;2.58;0.98;;;;;;;23.55;47.66;101725.78;5013790;28;20112;-74
2022/07/01 09:03:48;;;;;;;5.75;1.17;;;;;;;23.54;48.01;101720.59;5014786;28;20371;-74
2022/07/01 09:06:19;;;;;;;3.22;1.30;;;;;;;23.53;48.44;101719.75;5014451;28;20022;-77
2022/07/01 09:08:45;;;;;;;3.67;1.10;;;;;;;23.51;48.09;101724.38;5013851;28;20032;-78
2022/07/01 09:11:13;;;;;;;3.63;1.10;;;;;;;23.49;48.51;101723.66;5014094;28;20393;-72
2022/07/01 09:13:38;;;;;;;2.78;1.00;;;;;;;23.47;48.74;101725.63;5014598;28;20053;-73
2022/07/01 09:16:11;;;;;;;4.60;1.00;;;;;;;23.47;48.85;101725.63;5013584;28;20053;-75
2022/07/01 09:18:37;;;;;;;2.50;1.00;;;;;;;23.44;48.84;101720.59;5014468;28;20029;-75
2022/07/01 09:21:07;;;;;;;4.85;1.10;;;;;;;23.44;49.03;101720.59;5014038;28;20112;-75
2022/07/01 09:23:33;;;;;;;3.60;1.20;;;;;;;23.43;49.06;101710.94;5013512;28;20389;-75
2022/07/01 09:25:58;;;;;;;3.05;1.10;;;;;;;23.44;48.66;101723.25;5013758;28;20036;-77
2022/07/01 09:28:25;;;;;;;5.70;1.17;;;;;;;23.43;48.91;101723.38;5014046;28;20041;-75
2022/07/01 09:30:53;;;;;;;3.78;1.20;;;;;;;23.42;48.94;101719.06;5013952;28;20295;-76
2022/07/01 09:33:20;;;;;;;3.28;1.02;;;;;;;23.43;49.07;101734.03;5014263;28;20084;-76
2022/07/01 09:35:49;;;;;;;3.50;1.10;;;;;;;23.40;48.99;101734.28;5013196;28;20054;-75
2022/07/01 09:38:18;;;;;;;3.00;0.95;;;;;;;23.40;48.80;101734.28;4945056;28;20061;-74
2022/07/01 09:40:56;;;;;;;5.20;1.13;;;;;;;23.41;49.25;101733.31;5011018;28;20389;-75
2022/07/01 09:43:23;;;;;;;2.58;1.00;;;;;;;23.41;49.05;101731.50;5013339;28;20108;-75
2022/07/01 09:45:53;;;;;;;5.32;1.23;;;;;;;23.40;48.78;101737.81;5014019;28;20092;-75
2022/07/01 09:48:18;;;;;;;3.92;1.10;;;;;;;23.40;48.94;101735.16;5013867;28;20034;-73
2022/07/01 09:50:45;;;;;;;3.40;0.82;;;;;;;23.41;48.96;101741.31;5012955;28;20109;-72
2022/07/01 09:53:10;;;;;;;3.45;1.10;;;;;;;23.40;49.15;101742.28;5013332;28;20050;-73
2022/07/01 09:55:36;;;;;;;4.68;1.00;;;;;;;23.40;48.67;101745.81;5014028;28;20049;-78
2022/07/01 09:58:01;;;;;;;3.00;1.00;;;;;;;23.40;48.76;101745.81;5013088;28;20029;-73
2022/07/01 10:00:31;;;;;;;4.70;1.05;;;;;;;23.40;48.50;101743.13;5013730;28;20434;-74
2022/07/01 10:02:57;;;;;;;4.47;1.70;;;;;;;23.38;48.49;101734.44;5013474;28;20025;-75
2022/07/01 10:05:24;;;;;;;3.65;0.80;;;;;;;23.37;48.66;101740.75;5012770;28;20018;-74
2022/07/01 10:08:21;;;;;;;4.07;1.20;;;;;;;23.35;49.17;101740.03;5013459;28;20166;-74
2022/07/01 10:11:39;;;;;;;6.65;1.27;;;;;;;23.35;48.73;101756.00;5012781;28;20465;-75
2022/07/01 10:14:06;;;;;;;5.53;0.85;;;;;;;23.35;48.39;101763.97;5004843;28;20042;-72
2022/07/01 10:16:32;;;;;;;4.32;1.10;;;;;;;23.35;48.64;101751.53;5013692;28;20072;-73
2022/07/01 10:18:58;;;;;;;2.78;1.08;;;;;;;23.34;48.44;101759.66;5012330;28;20034;-74
2022/07/01 10:21:29;;;;;;;2.70;0.90;;;;;;;23.34;48.82;101755.16;5013428;28;20040;-79
2022/07/01 10:24:14;;;;;;;3.97;0.90;;;;;;;23.35;48.43;101761.31;5013155;28;20091;-82
2022/07/01 10:26:41;;;;;;;2.25;0.90;;;;;;;23.36;48.05;101773.63;5012969;28;20022;-82
2022/07/01 10:29:27;;;;;;;3.58;0.90;;;;;;;23.43;47.68;101774.78;5013258;28;20022;-80
2022/07/01 10:31:53;;;;;;;3.08;1.00;;;;;;;23.50;48.08;101777.72;5012326;28;20434;-81
2022/07/01 10:34:19;;;;;;;4.30;1.15;;;;;;;23.57;47.81;101776.19;5013641;28;20100;-81
2022/07/01 10:36:59;;;;;;;3.20;0.90;;;;;;;23.60;48.24;101780.41;5013159;28;20080;-79
2022/07/01 10:39:27;;;;;;;2.90;0.98;;;;;;;23.64;48.09;101779.13;5012292;28;20473;-76
2022/07/01 10:41:52;;;;;;;4.05;1.02;;;;;;;23.70;47.70;101779.44;5012767;28;20373;-73
2022/07/01 10:44:18;;;;;;;3.63;1.00;;;;;;;23.72;47.12;101768.66;5013312;28;20026;-75
2022/07/01 10:46:49;;;;;;;2.88;0.82;;;;;;;23.69;47.39;101775.06;5012918;28;20072;-78
2022/07/01 10:49:18;;;;;;;3.67;1.05;;;;;;;23.72;47.67;101766.81;5013426;28;20059;-73
2022/07/01 10:51:55;;;;;;;5.38;1.20;;;;;;;23.76;47.57;101762.06;5013238;28;20355;-66
2022/07/01 10:54:36;;;;;;;2.63;0.80;;;;;;;23.78;47.21;101761.91;5012362;28;20435;-68
2022/07/01 10:57:17;;;;;;;2.17;0.80;;;;;;;23.79;47.21;101763.59;5012710;28;20393;-70
2022/07/01 10:59:55;;;;;;;2.42;0.80;;;;;;;23.79;47.39;101769.75;5012703;28;20030;-67
2022/07/01 11:02:26;;;;;;;4.18;0.80;;;;;;;23.79;47.42;101767.09;5013293;28;20026;-70
2022/07/01 11:04:54;;;;;;;3.28;1.10;;;;;;;23.81;47.45;101751.00;5016561;28;20470;-67
2022/07/01 11:07:19;;;;;;;5.75;1.23;;;;;;;23.81;47.21;101762.47;5016168;28;20026;-66
2022/07/01 11:09:45;;;;;;;5.57;1.63;;;;;;;23.79;47.63;101751.13;5016840;28;20032;-67
2022/07/01 11:12:10;;;;;;;6.57;1.92;;;;;;;23.81;47.88;101743.84;5016426;28;20049;-66
2022/07/01 11:14:37;;;;;;;6.82;1.73;;;;;;;23.83;47.22;101749.91;5016189;28;20470;-68
2022/07/01 11:17:04;;;;;;;7.00;1.95;;;;;;;23.85;46.96;101747.09;5016213;28;20414;-69
2022/07/01 11:19:29;;;;;;;8.00;1.80;;;;;;;23.87;47.30;101750.47;5016567;28;20084;-65
2022/07/01 11:21:55;;;;;;;8.13;2.10;;;;;;;23.86;47.24;101741.66;5015579;28;20030;-66
2022/07/01 11:24:21;;;;;;;5.97;1.77;;;;;;;23.86;47.37;101746.09;5016440;28;20048;-66
2022/07/01 11:26:47;;;;;;;6.93;1.70;;;;;;;23.85;47.25;101744.44;5016407;28;20025;-66
2022/07/01 11:29:13;;;;;;;4.38;1.50;;;;;;;23.85;47.57;101736.47;5015487;28;20477;-66